Time;durP1;ratioP1;P1;durP2;ratioP2;P2;SDS_P1;SDS_P2;PMS_P1;PMS_P2;Temp;Humidity;BMP_temperature;BMP_pressure;BME280_temperature;BME280_humidity;BME280_pressure;Samples;Min_cycle;Max_cycle;Signal;HPM_P1;HPM_P2
2021/12/27 00:00:51;;;;;;;;;10.00;7.67;;;;;13.90;69.52;99532.44;2060176;27;47799;-56
2021/12/27 00:01:52;;;;;;;;;7.25;7.25;;;;;13.89;69.89;99528.91;2050112;28;46973;-55
2021/12/27 00:02:55;;;;;;;;;6.75;6.75;;;;;13.89;69.80;99528.91;2062162;27;47856;-55
2021/12/27 00:03:56;;;;;;;;;7.00;7.00;;;;;13.89;69.60;99528.91;2069071;27;48161;-55
2021/12/27 00:04:56;;;;;;;;;9.00;7.00;;;;;13.90;69.87;99521.78;2059774;27;47289;-56
2021/12/27 00:05:57;;;;;;;;;7.00;6.33;;;;;13.91;69.85;99526.16;2065937;28;47831;-54
2021/12/27 00:06:58;;;;;;;;;8.33;5.67;;;;;13.91;69.54;99528.84;2056302;28;47054;-56
2021/12/27 00:07:58;;;;;;;;;7.33;7.33;;;;;13.91;69.59;99521.69;2079894;28;46846;-55
2021/12/27 00:08:59;;;;;;;;;6.33;6.33;;;;;13.90;69.50;99522.63;2054152;28;48119;-57
2021/12/27 00:10:00;;;;;;;;;6.00;6.00;;;;;13.90;69.32;99511.97;2061148;27;47377;-57
2021/12/27 00:11:01;;;;;;;;;4.00;4.00;;;;;13.90;69.82;99519.09;2073632;28;47142;-55
2021/12/27 00:12:02;;;;;;;;;4.00;4.00;;;;;13.88;69.45;99516.53;2065817;28;48032;-55
2021/12/27 00:13:04;;;;;;;;;5.75;5.00;;;;;13.89;69.83;99509.38;2072423;28;48337;-56
2021/12/27 00:14:05;;;;;;;;;5.50;5.25;;;;;13.89;69.75;99501.38;2083531;28;46947;-57
2021/12/27 00:15:06;;;;;;;;;5.00;5.00;;;;;13.88;69.65;99505.88;2065744;27;45422;-55
2021/12/27 00:16:06;;;;;;;;;9.00;7.25;;;;;13.89;69.73;99502.25;2072505;27;47856;-56
2021/12/27 00:17:07;;;;;;;;;4.67;4.67;;;;;13.88;69.43;99503.19;2058037;28;45555;-56
2021/12/27 00:18:08;;;;;;;;;4.33;4.33;;;;;13.89;69.68;99501.38;2057033;28;48150;-57
2021/12/27 00:19:09;;;;;;;;;5.00;5.00;;;;;13.90;69.29;99503.09;2084079;28;47150;-56
2021/12/27 00:20:14;;;;;;;;;7.00;5.75;;;;;13.89;69.56;99504.06;2061162;28;48220;-56
2021/12/27 00:21:14;;;;;;;;;5.25;4.25;;;;;13.89;69.63;99510.25;2050557;28;48138;-54
2021/12/27 00:22:14;;;;;;;;;3.00;3.00;;;;;13.88;69.50;99502.34;2056869;28;47167;-55
2021/12/27 00:23:15;;;;;;;;;4.00;4.00;;;;;13.88;69.36;99499.66;2064333;28;48434;-55
2021/12/27 00:24:16;;;;;;;;;4.33;4.33;;;;;13.88;69.63;99505.88;2076978;27;47731;-54
2021/12/27 00:25:17;;;;;;;;;4.67;4.33;;;;;13.89;69.39;99502.25;2064240;28;47418;-55
2021/12/27 00:26:17;;;;;;;;;2.50;2.50;;;;;13.89;69.52;99504.06;2055392;28;47382;-57
2021/12/27 00:27:18;;;;;;;;;4.67;4.67;;;;;13.88;69.72;99505.88;2056342;28;47724;-53
2021/12/27 00:28:19;;;;;;;;;5.50;4.50;;;;;13.88;69.75;99508.53;2061918;28;45992;-53
2021/12/27 00:29:19;;;;;;;;;6.00;4.33;;;;;13.89;69.77;99507.59;2079681;27;47248;-55
2021/12/27 00:30:20;;;;;;;;;5.00;5.00;;;;;13.89;69.60;99504.91;2081074;28;47700;-54
2021/12/27 00:31:20;;;;;;;;;4.00;3.75;;;;;13.90;69.58;99501.31;2057659;27;46345;-55
2021/12/27 00:32:21;;;;;;;;;4.00;4.00;;;;;13.90;69.63;99493.31;2064018;28;47151;-55
2021/12/27 00:33:21;;;;;;;;;5.00;4.67;;;;;13.91;69.52;99497.69;2071306;27;48186;-58
2021/12/27 00:34:22;;;;;;;;;4.00;4.00;;;;;13.92;69.59;99499.41;2072422;27;47390;-56
2021/12/27 00:35:26;;;;;;;;;4.00;4.00;;;;;13.92;69.61;99499.41;2084728;28;48293;-58
2021/12/27 00:36:26;;;;;;;;;3.25;3.25;;;;;13.94;69.73;99501.97;2061754;28;47867;-55
2021/12/27 00:37:26;;;;;;;;;2.00;2.00;;;;;13.94;69.27;99488.66;2063106;28;48351;-55
2021/12/27 00:38:27;;;;;;;;;5.00;3.00;;;;;13.94;69.42;99492.19;2079199;28;46443;-57
2021/12/27 00:39:27;;;;;;;;;3.67;3.67;;;;;13.93;69.30;99490.47;2064834;27;46795;-55
2021/12/27 00:40:28;;;;;;;;;4.33;3.33;;;;;13.95;69.77;99493.03;2085920;27;47246;-55
2021/12/27 00:41:28;;;;;;;;;4.67;4.67;;;;;13.94;69.57;99486.84;2070329;28;47341;-55
2021/12/27 00:42:28;;;;;;;;;3.00;3.00;;;;;13.95;69.47;99487.69;2064580;27;47089;-56
2021/12/27 00:43:29;;;;;;;;;2.00;2.00;;;;;13.94;69.34;99481.50;2084898;27;47430;-57
2021/12/27 00:44:30;;;;;;;;;3.33;2.67;;;;;13.95;69.30;99487.69;2068295;28;48195;-55
2021/12/27 00:45:30;;;;;;;;;2.33;2.33;;;;;13.96;69.29;99481.41;2079214;27;47831;-57
2021/12/27 00:46:31;;;;;;;;;3.00;3.00;;;;;13.95;69.34;99482.38;2059804;28;45511;-54
2021/12/27 00:47:31;;;;;;;;;4.00;3.33;;;;;13.97;69.62;99488.47;2062277;28;47158;-56
2021/12/27 00:48:32;;;;;;;;;3.33;3.33;;;;;13.96;69.26;99490.28;2062479;27;47075;-55
2021/12/27 00:49:32;;;;;;;;;3.00;3.00;;;;;13.96;69.39;99490.28;2076644;28;45251;-55
2021/12/27 00:50:33;;;;;;;;;3.00;3.00;;;;;13.96;69.72;99487.63;2072479;27;46179;-56
2021/12/27 00:51:33;;;;;;;;;3.00;3.00;;;;;13.98;69.32;99487.56;2057182;28;47535;-56
2021/12/27 00:52:35;;;;;;;;;2.33;2.33;;;;;13.96;69.58;99484.94;2063434;28;48249;-56
2021/12/27 00:53:36;;;;;;;;;2.75;2.50;;;;;13.97;69.58;99484.00;2061719;27;48014;-52
2021/12/27 00:54:36;;;;;;;;;2.67;2.67;;;;;13.96;69.76;99484.94;2084592;27;47934;-55
2021/12/27 00:55:37;;;;;;;;;5.00;3.00;;;;;13.96;69.47;99492.09;2063590;27;47320;-55
2021/12/27 00:56:38;;;;;;;;;6.00;3.00;;;;;13.97;69.32;99485.81;2057294;27;48074;-55
2021/12/27 00:57:38;;;;;;;;;2.00;2.00;;;;;13.97;69.47;99485.81;2073668;28;47419;-56
2021/12/27 00:58:39;;;;;;;;;3.25;2.75;;;;;13.97;69.39;99485.81;2061334;27;46847;-52
2021/12/27 00:59:39;;;;;;;;;4.00;3.00;;;;;13.97;69.37;99493.81;2086214;28;48266;-56
2021/12/27 01:00:40;;;;;;;;;4.00;3.00;;;;;13.97;69.56;99492.00;2064664;28;47293;-57
2021/12/27 01:01:41;;;;;;;;;4.00;3.00;;;;;13.98;69.61;99482.22;2058444;28;47119;-54
2021/12/27 01:02:43;;;;;;;;;3.33;3.00;;;;;13.97;69.73;99483.13;2080929;28;47872;-55
2021/12/27 01:03:43;;;;;;;;;2.25;2.25;;;;;13.97;69.32;99476.00;2064234;28;48022;-54
2021/12/27 01:04:43;;;;;;;;;2.33;2.33;;;;;13.98;69.27;99479.56;2084053;27;47335;-56
2021/12/27 01:05:44;;;;;;;;;3.00;3.00;;;;;13.97;69.50;99483.13;2069716;28;47202;-54
2021/12/27 01:06:44;;;;;;;;;2.67;2.67;;;;;13.98;69.18;99483.09;2055666;28;47710;-54
2021/12/27 01:07:45;;;;;;;;;2.67;2.67;;;;;13.97;69.58;99484.00;2083912;28;47373;-54
2021/12/27 01:08:46;;;;;;;;;2.33;2.33;;;;;13.98;69.17;99485.75;2065386;28;47276;-53
2021/12/27 01:13:44;;;;;;;;;2.50;2.00;;;;;13.97;69.45;99473.31;2059067;28;47408;-55
2021/12/27 01:15:06;;;;;;;;;2.50;2.50;;;;;13.98;69.19;99472.41;2072406;27;48446;-55
2021/12/27 01:17:09;;;;;;;;;2.50;2.50;;;;;13.98;69.44;99475.09;2054169;28;47440;-55
2021/12/27 01:18:10;;;;;;;;;4.00;3.75;;;;;13.98;69.61;99467.06;2057176;28;48349;-58
2021/12/27 01:19:11;;;;;;;;;2.00;2.00;;;;;13.97;69.60;99473.31;2084250;28;47250;-55
2021/12/27 01:20:14;;;;;;;;;3.75;3.25;;;;;13.98;69.28;99469.75;2075595;27;47360;-54
2021/12/27 01:21:19;;;;;;;;;2.75;2.75;;;;;13.97;69.16;99469.81;2064509;27;48152;-55
2021/12/27 01:22:19;;;;;;;;;2.75;2.75;;;;;13.97;69.17;99469.81;2063607;27;47418;-55
2021/12/27 01:23:19;;;;;;;;;4.33;2.00;;;;;13.95;69.14;99469.03;2069800;28;47574;-56
2021/12/27 01:24:20;;;;;;;;;5.33;5.00;;;;;13.94;69.29;99470.84;2075287;27;48113;-57
2021/12/27 01:25:21;;;;;;;;;2.33;2.00;;;;;13.95;69.34;99463.69;2069872;28;48021;-57
2021/12/27 01:26:22;;;;;;;;;2.75;2.75;;;;;13.94;69.50;99464.66;2055360;28;47494;-54
2021/12/27 01:27:23;;;;;;;;;2.50;2.50;;;;;13.94;69.41;99467.31;2058571;27;48258;-55
2021/12/27 01:28:23;;;;;;;;;2.00;2.00;;;;;13.93;69.43;99468.25;2066321;28;47096;-55
2021/12/27 01:29:24;;;;;;;;;3.00;3.00;;;;;13.92;69.51;99469.22;2075890;27;48414;-57
2021/12/27 01:30:25;;;;;;;;;2.00;2.00;;;;;13.92;69.15;99467.41;2083489;28;48174;-55
2021/12/27 01:31:25;;;;;;;;;2.00;2.00;;;;;13.91;69.45;99464.81;2055726;28;48308;-56
2021/12/27 01:32:30;;;;;;;;;1.67;1.67;;;;;13.91;69.21;99456.81;2065693;27;47427;-54
2021/12/27 01:33:31;;;;;;;;;2.00;2.00;;;;;13.92;69.46;99463.88;2076595;28;48093;-54
2021/12/27 01:34:32;;;;;;;;;1.75;1.75;;;;;13.92;69.46;99461.22;2066179;27;48357;-53
2021/12/27 01:35:34;;;;;;;;;3.00;3.00;;;;;13.93;69.32;99454.94;2084347;28;47553;-54
2021/12/27 01:36:36;;;;;;;;;1.75;1.00;;;;;13.93;69.32;99449.59;2068842;28;45712;-55
2021/12/27 01:37:36;;;;;;;;;2.25;2.00;;;;;13.94;69.63;99452.16;2058344;27;47641;-53
2021/12/27 01:38:38;;;;;;;;;2.00;2.00;;;;;13.94;69.41;99454.84;2081120;28;48217;-56
2021/12/27 01:39:38;;;;;;;;;1.25;1.25;;;;;13.96;69.40;99449.41;2067439;28;47489;-55
2021/12/27 01:40:42;;;;;;;;;2.33;2.33;;;;;13.96;69.19;99450.28;2078463;27;48266;-55
2021/12/27 01:41:42;;;;;;;;;3.25;2.25;;;;;13.97;69.17;99448.47;2074431;28;46387;-55
2021/12/27 01:43:05;;;;;;;;;2.67;2.67;;;;;13.96;69.44;99436.94;2061825;28;48259;-53
2021/12/27 01:44:06;;;;;;;;;2.75;2.75;;;;;13.96;69.20;99449.41;2071346;27;47547;-56
2021/12/27 01:45:09;;;;;;;;;3.67;3.67;;;;;13.96;69.11;99446.75;2082893;28;48249;-56
2021/12/27 01:46:20;;;;;;;;;1.75;1.75;;;;;13.96;69.14;99446.75;2059345;28;48113;-55
2021/12/27 01:47:20;;;;;;;;;2.00;2.00;;;;;13.95;69.31;99442.34;2054798;28;47130;-56
2021/12/27 01:48:24;;;;;;;;;3.33;3.00;;;;;13.96;69.33;99442.28;2060971;28;47406;-55
2021/12/27 01:49:25;;;;;;;;;2.50;2.50;;;;;13.97;69.26;99449.31;2071573;27;47379;-56
2021/12/27 01:50:25;;;;;;;;;2.67;2.67;;;;;13.97;69.44;99448.47;2075151;27;47166;-55
2021/12/27 01:51:29;;;;;;;;;3.00;3.00;;;;;13.97;69.24;99441.31;2056541;28;48123;-56
2021/12/27 01:52:30;;;;;;;;;4.50;3.00;;;;;13.97;69.36;99433.31;2059532;27;47705;-54
2021/12/27 01:53:33;;;;;;;;;3.00;3.00;;;;;13.97;69.17;99443.13;2065874;27;47231;-55
2021/12/27 01:54:34;;;;;;;;;2.00;2.00;;;;;13.97;69.30;99435.13;2081539;27;47773;-56
2021/12/27 01:55:35;;;;;;;;;2.00;2.00;;;;;13.96;68.85;99436.94;2064016;27;47119;-55
2021/12/27 01:56:36;;;;;;;;;2.00;2.00;;;;;13.96;69.37;99428.94;2057621;28;47490;-55
2021/12/27 01:57:37;;;;;;;;;2.25;2.25;;;;;13.98;69.33;99428.88;2066180;28;48289;-55
2021/12/27 01:58:38;;;;;;;;;2.33;2.00;;;;;13.97;69.20;99429.78;2063395;27;46898;-55
2021/12/27 01:59:39;;;;;;;;;2.50;2.50;;;;;13.96;69.29;99428.06;2083327;28;47670;-55
2021/12/27 02:00:43;;;;;;;;;4.00;2.67;;;;;13.96;69.30;99431.59;2064859;27;46091;-54
2021/12/27 02:01:44;;;;;;;;;3.25;2.25;;;;;13.97;69.36;99436.00;2053672;28;48392;-55
2021/12/27 02:02:46;;;;;;;;;5.00;3.67;;;;;13.97;69.20;99432.47;2080445;28;48137;-55
2021/12/27 02:03:49;;;;;;;;;2.75;2.75;;;;;13.97;69.04;99438.66;2057766;28;48381;-55
2021/12/27 02:04:50;;;;;;;;;2.50;2.25;;;;;13.97;69.32;99435.13;2079060;27;46169;-55
2021/12/27 02:05:50;;;;;;;;;2.33;2.00;;;;;13.97;69.03;99444.00;2068768;28;47361;-54
2021/12/27 02:06:51;;;;;;;;;3.33;3.33;;;;;13.98;69.40;99448.41;2055874;28;48284;-56
2021/12/27 02:07:51;;;;;;;;;3.00;3.00;;;;;13.99;69.35;99438.59;2081483;28;47220;-55
2021/12/27 02:08:52;;;;;;;;;3.00;2.00;;;;;13.98;69.27;99437.75;2068727;28;48572;-55
2021/12/27 02:10:02;;;;;;;;;4.67;4.67;;;;;13.98;68.85;99437.75;2071725;27;48133;-55
2021/12/27 02:11:04;;;;;;;;;4.50;3.50;;;;;13.98;69.43;99440.41;2072551;28;46435;-54
2021/12/27 02:12:06;;;;;;;;;3.00;3.00;;;;;13.98;69.40;99426.22;2068781;28;47347;-54
2021/12/27 02:13:07;;;;;;;;;4.00;3.00;;;;;13.99;69.09;99427.94;2068874;28;47423;-54
2021/12/27 02:14:08;;;;;;;;;3.00;3.00;;;;;13.99;69.00;99433.25;2083040;28;47331;-54
2021/12/27 02:15:09;;;;;;;;;2.00;2.00;;;;;13.98;69.03;99434.22;2068346;28;47401;-53
2021/12/27 02:16:13;;;;;;;;;3.00;3.00;;;;;13.99;69.04;99438.59;2070402;27;48250;-54
2021/12/27 02:17:18;;;;;;;;;3.25;3.25;;;;;13.98;69.13;99437.75;2054790;28;47352;-54
2021/12/27 02:18:19;;;;;;;;;3.00;3.00;;;;;13.99;69.30;99434.13;2053081;28;47333;-55
2021/12/27 02:19:20;;;;;;;;;6.00;5.00;;;;;13.98;69.46;99427.06;2078977;28;46902;-54
2021/12/27 02:20:24;;;;;;;;;5.33;2.67;;;;;13.98;69.21;99432.41;2078555;28;45302;-55
2021/12/27 02:21:25;;;;;;;;;2.00;2.00;;;;;13.98;69.44;99431.53;2055839;27;47086;-56
2021/12/27 02:22:28;;;;;;;;;3.67;3.67;;;;;13.98;69.20;99434.22;2061048;28;46079;-54
2021/12/27 02:23:28;;;;;;;;;4.00;3.00;;;;;13.97;69.41;99437.78;2071053;28;47373;-55
2021/12/27 02:24:29;;;;;;;;;4.67;4.67;;;;;13.96;69.14;99428.06;2068198;27;47428;-55
2021/12/27 02:25:31;;;;;;;;;3.00;2.00;;;;;13.96;69.36;99433.41;2067985;28;47410;-55
2021/12/27 02:26:32;;;;;;;;;3.00;2.75;;;;;13.95;69.38;99432.56;2053648;28;48286;-54
2021/12/27 02:27:32;;;;;;;;;2.67;2.67;;;;;13.95;69.32;99421.03;2060124;27;46183;-55
2021/12/27 02:28:33;;;;;;;;;3.00;3.00;;;;;13.95;69.38;99429.88;2070375;28;48026;-54
2021/12/27 02:29:34;;;;;;;;;2.67;2.67;;;;;13.94;69.64;99428.16;2051805;28;47878;-55
2021/12/27 02:30:37;;;;;;;;;2.33;2.33;;;;;13.95;69.39;99423.69;2080934;28;45926;-53
2021/12/27 02:31:40;;;;;;;;;3.50;3.50;;;;;13.96;69.61;99414.75;2062399;28;47501;-56
2021/12/27 02:32:52;;;;;;;;;4.00;4.00;;;;;13.96;69.79;99417.41;2050974;28;47232;-56
2021/12/27 02:33:53;;;;;;;;;3.50;2.75;;;;;13.95;69.76;99410.34;2079503;28;47008;-54
2021/12/27 02:34:53;;;;;;;;;2.00;2.00;;;;;13.95;69.75;99413.03;2069697;28;46991;-54
2021/12/27 02:35:56;;;;;;;;;5.67;4.00;;;;;13.96;69.63;99420.06;2068933;28;46802;-54
2021/12/27 02:36:56;;;;;;;;;4.00;3.00;;;;;13.96;69.79;99410.25;2070266;28;47398;-54
2021/12/27 02:37:59;;;;;;;;;2.00;2.00;;;;;13.96;69.45;99412.94;2058584;27;48162;-54
2021/12/27 02:39:00;;;;;;;;;3.00;3.00;;;;;13.96;69.46;99412.06;2076104;27;47389;-57
2021/12/27 02:40:00;;;;;;;;;3.00;3.00;;;;;13.96;69.39;99415.59;2076088;28;46978;-54
2021/12/27 02:41:02;;;;;;;;;2.33;2.33;;;;;13.96;69.71;99414.75;2061157;27;47187;-54
2021/12/27 02:42:02;;;;;;;;;4.75;3.75;;;;;13.95;69.50;99410.34;2076422;27;46938;-53
2021/12/27 02:43:10;;;;;;;;;3.67;3.67;;;;;13.96;69.81;99406.75;2055068;28;47617;-54
2021/12/27 02:44:10;;;;;;;;;3.75;3.75;;;;;13.96;69.56;99415.59;2060379;27;48303;-55
2021/12/27 02:45:11;;;;;;;;;4.00;3.33;;;;;13.96;69.70;99414.75;2081923;27;48276;-56
2021/12/27 02:46:14;;;;;;;;;2.67;2.67;;;;;13.96;69.78;99414.75;2057944;28;47212;-53
2021/12/27 02:47:16;;;;;;;;;4.00;4.00;;;;;13.95;69.47;99410.34;2054878;28;47499;-55
2021/12/27 02:48:19;;;;;;;;;4.00;4.00;;;;;13.96;69.43;99414.75;2058305;28;47423;-54
2021/12/27 02:49:19;;;;;;;;;4.00;4.00;;;;;13.94;69.31;99411.31;2058548;28;47657;-53
2021/12/27 02:50:21;;;;;;;;;2.33;2.33;;;;;13.94;69.90;99409.50;2077606;27;47965;-55
2021/12/27 02:51:21;;;;;;;;;3.50;3.50;;;;;13.94;69.66;99412.16;2065433;28;47370;-53
2021/12/27 02:52:23;;;;;;;;;4.00;4.00;;;;;13.93;69.80;99402.44;2054886;28;46132;-57
2021/12/27 02:53:24;;;;;;;;;3.50;2.75;;;;;13.96;69.50;99409.41;2066574;28;47719;-55
2021/12/27 02:54:26;;;;;;;;;5.00;3.00;;;;;13.94;69.53;99400.63;2073441;28;48193;-53
2021/12/27 02:55:27;;;;;;;;;7.50;3.50;;;;;13.94;69.56;99403.31;2061552;27;47217;-55
2021/12/27 02:56:29;;;;;;;;;4.00;4.00;;;;;13.93;69.68;99404.25;2060675;28;47000;-55
2021/12/27 02:57:30;;;;;;;;;2.00;2.00;;;;;13.92;69.74;99400.72;2062762;28;46603;-55
2021/12/27 02:58:30;;;;;;;;;5.00;3.33;;;;;13.92;69.77;99394.53;2067274;27;46646;-55
2021/12/27 02:59:31;;;;;;;;;5.33;3.00;;;;;13.91;69.63;99396.34;2076326;28;47401;-54
2021/12/27 03:00:36;;;;;;;;;6.00;3.00;;;;;13.90;69.63;99399.09;2062070;28;48253;-55
2021/12/27 03:01:37;;;;;;;;;5.25;5.00;;;;;13.89;69.42;99392.03;2064673;28;47920;-54
2021/12/27 03:02:37;;;;;;;;;4.00;4.00;;;;;13.88;69.46;99396.53;2069647;27;47213;-54
2021/12/27 03:03:39;;;;;;;;;3.67;3.67;;;;;13.89;69.45;99397.38;2054263;28;45460;-55
2021/12/27 03:04:39;;;;;;;;;5.50;4.00;;;;;13.88;69.60;99393.84;2077958;27;46868;-55
2021/12/27 03:05:42;;;;;;;;;4.67;4.33;;;;;13.89;69.69;99386.72;2060391;28;47098;-56
2021/12/27 03:06:42;;;;;;;;;3.50;3.50;;;;;13.88;69.55;99391.19;2054775;28;47615;-55
2021/12/27 03:07:44;;;;;;;;;3.00;3.00;;;;;13.88;69.64;99393.84;2076035;28;48302;-55
2021/12/27 03:08:46;;;;;;;;;5.00;3.50;;;;;13.88;69.45;99393.00;2056264;28;47209;-55
2021/12/27 03:09:47;;;;;;;;;3.50;2.75;;;;;13.87;69.53;99381.47;2073217;27;48535;-55
2021/12/27 03:10:51;;;;;;;;;3.33;3.33;;;;;13.88;69.92;99391.19;2070477;28;47338;-57
2021/12/27 03:11:53;;;;;;;;;3.75;3.75;;;;;13.88;69.70;99385.00;2052130;28;48071;-52
2021/12/27 03:12:55;;;;;;;;;5.25;2.75;;;;;13.89;69.87;99389.38;2076621;28;47115;-57
2021/12/27 03:13:56;;;;;;;;;3.33;3.33;;;;;13.90;69.81;99389.28;2071291;28;46934;-57
2021/12/27 03:14:56;;;;;;;;;3.67;3.00;;;;;13.90;69.83;99389.28;2060156;27;45804;-53
2021/12/27 03:16:00;;;;;;;;;4.00;4.00;;;;;13.91;69.62;99396.34;2071732;28;47302;-54
2021/12/27 03:17:01;;;;;;;;;4.00;3.00;;;;;13.90;69.49;99389.28;2065100;28;47842;-53
2021/12/27 03:18:01;;;;;;;;;6.00;4.00;;;;;13.89;69.69;99392.91;2065147;27;48372;-55
2021/12/27 03:19:02;;;;;;;;;4.00;4.00;;;;;13.89;69.92;99389.38;2074335;28;47050;-55
2021/12/27 03:20:04;;;;;;;;;0.00;0.00;;;;;13.88;69.60;99391.19;2056031;28;46874;-51
2021/12/27 03:21:06;;;;;;;;;8.00;5.00;;;;;13.89;69.54;99389.38;2061223;28;47551;-56
2021/12/27 03:22:06;;;;;;;;;4.75;4.00;;;;;13.89;69.63;99387.56;2056275;28;47903;-55
2021/12/27 03:23:07;;;;;;;;;4.67;4.00;;;;;13.90;69.75;99388.44;2058595;27;48120;-55
2021/12/27 03:24:07;;;;;;;;;4.00;4.00;;;;;13.90;69.41;99391.97;2078137;28;46777;-54
2021/12/27 03:25:26;;;;;;;;;4.00;4.00;;;;;13.90;69.68;99380.44;2065132;27;48277;-56
2021/12/27 03:26:26;;;;;;;;;3.75;3.75;;;;;13.90;69.24;99386.63;2052319;28;47473;-56
2021/12/27 03:27:26;;;;;;;;;6.67;3.67;;;;;13.91;69.28;99382.16;2059598;28;48187;-53
2021/12/27 03:28:27;;;;;;;;;6.67;5.00;;;;;13.90;69.59;99383.97;2067919;28;47292;-55
2021/12/27 03:29:27;;;;;;;;;4.67;4.67;;;;;13.91;69.62;99379.47;2074454;27;47557;-55
2021/12/27 03:30:28;;;;;;;;;7.00;6.00;;;;;13.91;69.52;99380.34;2083057;28;46924;-54
2021/12/27 03:31:29;;;;;;;;;2.67;2.67;;;;;13.91;69.20;99374.16;2057499;28;47005;-55
2021/12/27 03:32:31;;;;;;;;;5.33;5.33;;;;;13.91;69.26;99375.00;2064069;27;47363;-53
2021/12/27 03:33:32;;;;;;;;;4.00;4.00;;;;;13.91;69.31;99371.47;2076336;28;47352;-55
2021/12/27 03:34:33;;;;;;;;;5.67;5.67;;;;;13.90;69.41;99372.44;2067384;27;46994;-54
2021/12/27 03:35:36;;;;;;;;;6.00;5.00;;;;;13.90;69.21;99375.09;2085703;28;47541;-55
2021/12/27 03:36:39;;;;;;;;;8.25;6.00;;;;;13.90;69.29;99372.44;2068986;28;47581;-55
2021/12/27 03:37:47;;;;;;;;;3.00;3.00;;;;;13.90;69.11;99373.28;2054546;28;47237;-54
2021/12/27 03:38:52;;;;;;;;;5.00;5.00;;;;;13.90;69.29;99369.75;2083753;28;47448;-54
2021/12/27 03:39:52;;;;;;;;;5.00;4.00;;;;;13.90;69.53;99367.09;2076016;28;47303;-55
2021/12/27 03:40:53;;;;;;;;;3.00;3.00;;;;;13.91;69.37;99371.47;2069445;27;47400;-54
2021/12/27 03:41:53;;;;;;;;;4.00;4.00;;;;;13.90;69.36;99369.75;2056926;28;48060;-54
2021/12/27 03:42:55;;;;;;;;;5.00;5.00;;;;;13.89;69.09;99360.91;2062052;27;48068;-55
2021/12/27 03:43:56;;;;;;;;;4.50;3.00;;;;;13.89;69.38;99363.56;2059516;28;47522;-56
2021/12/27 03:44:56;;;;;;;;;4.00;4.00;;;;;13.90;69.26;99367.09;2084486;27;46817;-55
2021/12/27 03:45:57;;;;;;;;;7.00;5.00;;;;;13.89;69.31;99366.25;2062863;27;46734;-55
2021/12/27 03:46:57;;;;;;;;;6.00;5.00;;;;;13.90;69.03;99364.44;2064275;27;48155;-55
2021/12/27 03:47:59;;;;;;;;;3.33;3.33;;;;;13.90;69.45;99367.97;2066250;28;47058;-55
2021/12/27 03:48:59;;;;;;;;;5.00;4.50;;;;;13.89;69.40;99358.25;2060037;27;47273;-55
2021/12/27 03:50:00;;;;;;;;;5.00;4.67;;;;;13.89;69.18;99363.56;2065350;27;47487;-56
2021/12/27 03:51:02;;;;;;;;;5.33;4.67;;;;;13.88;69.17;99353.00;2060933;27;47220;-55
2021/12/27 03:52:03;;;;;;;;;2.25;2.25;;;;;13.88;69.38;99353.84;2055262;28;47723;-56
2021/12/27 03:53:05;;;;;;;;;5.00;5.00;;;;;13.89;69.40;99349.38;2058866;28;47304;-52
2021/12/27 03:54:05;;;;;;;;;6.75;4.00;;;;;13.89;69.26;99349.38;2063850;28;48576;-56
2021/12/27 03:55:07;;;;;;;;;3.00;3.00;;;;;13.88;69.44;99353.84;2084609;27;47069;-56
2021/12/27 03:56:08;;;;;;;;;9.25;3.75;;;;;13.90;69.08;99348.44;2058801;27;47333;-56
2021/12/27 03:57:09;;;;;;;;;6.00;4.00;;;;;13.88;69.20;99350.31;2057529;28;46808;-55
2021/12/27 03:58:22;;;;;;;;;8.00;6.00;;;;;13.87;69.22;99348.63;2075239;28;45914;-56
2021/12/27 03:59:35;;;;;;;;;5.25;4.50;;;;;13.87;69.11;99340.59;2055052;28;48532;-55
2021/12/27 04:01:45;;;;;;;;;5.25;5.25;;;;;13.86;69.49;99346.91;2057739;28;49280;-55
2021/12/27 04:02:46;;;;;;;;;5.00;5.00;;;;;13.85;69.21;99343.38;2081172;28;48143;-54
2021/12/27 04:03:50;;;;;;;;;5.67;5.67;;;;;13.85;69.24;99340.69;2064220;28;47197;-56
2021/12/27 04:04:51;;;;;;;;;3.25;3.25;;;;;13.84;69.21;99342.47;2083813;27;47378;-55
2021/12/27 04:05:51;;;;;;;;;3.00;3.00;;;;;13.84;69.41;99347.81;2068911;28;47358;-54
2021/12/27 04:06:52;;;;;;;;;5.33;4.33;;;;;13.83;69.34;99340.75;2053736;27;47156;-55
2021/12/27 04:08:00;;;;;;;;;3.67;3.00;;;;;13.86;69.09;99344.22;2084290;28;48018;-55
2021/12/27 04:09:01;;;;;;;;;3.25;3.00;;;;;13.85;69.60;99343.38;2055309;28;46847;-55
2021/12/27 04:10:04;;;;;;;;;7.67;6.67;;;;;13.84;69.15;99342.47;2054392;28;46936;-52
2021/12/27 04:11:04;;;;;;;;;5.00;4.00;;;;;13.85;69.13;99340.69;2053952;28;47392;-54
2021/12/27 04:12:05;;;;;;;;;5.00;5.00;;;;;13.86;69.45;99344.22;2054680;28;47203;-55
2021/12/27 04:13:08;;;;;;;;;4.00;4.00;;;;;13.85;69.10;99348.69;2052183;28;47699;-56
2021/12/27 04:14:09;;;;;;;;;6.25;6.25;;;;;13.87;69.05;99345.94;2047161;28;48314;-54
2021/12/27 04:15:09;;;;;;;;;4.33;4.33;;;;;13.87;69.36;99346.81;2055248;28;48401;-54
2021/12/27 04:16:10;;;;;;;;;5.00;5.00;;;;;13.86;69.04;99339.75;2052191;28;47051;-55
2021/12/27 04:17:10;;;;;;;;;5.67;4.67;;;;;13.86;69.32;99345.09;2055041;28;47366;-56
2021/12/27 04:18:11;;;;;;;;;6.33;6.33;;;;;13.86;69.04;99342.41;2051067;28;46796;-53
2021/12/27 04:19:13;;;;;;;;;5.00;5.00;;;;;13.87;69.35;99345.94;2048506;28;47368;-53
2021/12/27 04:20:14;;;;;;;;;3.25;3.25;;;;;13.85;69.18;99335.38;2054981;28;47968;-57
2021/12/27 04:21:14;;;;;;;;;7.00;6.00;;;;;13.85;69.16;99335.38;2054406;28;47298;-56
2021/12/27 04:22:14;;;;;;;;;4.67;3.67;;;;;13.85;69.01;99340.69;2054511;28;47701;-56
2021/12/27 04:23:15;;;;;;;;;4.33;4.33;;;;;13.83;69.21;99335.44;2050687;28;46883;-54
2021/12/27 04:24:15;;;;;;;;;4.00;3.67;;;;;13.82;69.25;99338.19;2050288;28;47567;-55
2021/12/27 04:25:18;;;;;;;;;5.33;5.00;;;;;13.82;69.13;99333.72;2054980;28;47633;-55
2021/12/27 04:26:19;;;;;;;;;6.75;5.25;;;;;13.83;69.23;99332.75;2054134;28;48462;-56
2021/12/27 04:27:20;;;;;;;;;6.75;6.00;;;;;13.83;69.36;99334.56;2055195;28;48324;-55
2021/12/27 04:28:20;;;;;;;;;7.00;6.00;;;;;13.83;69.40;99329.22;2050009;28;47161;-55
2021/12/27 04:29:21;;;;;;;;;5.33;5.33;;;;;13.83;69.28;99335.44;2052696;28;47116;-55
2021/12/27 04:30:21;;;;;;;;;6.00;4.67;;;;;13.84;69.36;99329.16;2054873;28;47933;-55
2021/12/27 04:31:22;;;;;;;;;5.00;4.00;;;;;13.82;69.20;99328.38;2054672;28;47022;-55
2021/12/27 04:32:23;;;;;;;;;5.00;5.00;;;;;13.84;69.23;99323.81;2054953;28;46903;-54
2021/12/27 04:33:23;;;;;;;;;6.00;5.00;;;;;13.83;69.13;99327.44;2049988;28;48273;-56
2021/12/27 04:34:24;;;;;;;;;4.33;3.00;;;;;13.84;69.36;99322.94;2054242;28;47718;-55
2021/12/27 04:35:24;;;;;;;;;8.25;6.75;;;;;13.84;69.40;99334.47;2057671;28;48150;-54
2021/12/27 04:36:25;;;;;;;;;4.00;4.00;;;;;13.85;69.26;99330.03;2055582;28;47339;-56
2021/12/27 04:37:28;;;;;;;;;5.67;5.00;;;;;13.85;69.05;99330.03;2054731;28;47083;-55
2021/12/27 04:38:29;;;;;;;;;7.50;5.00;;;;;13.83;69.03;99330.09;2054884;28;45595;-53
2021/12/27 04:39:29;;;;;;;;;5.00;4.67;;;;;13.83;68.99;99332.75;2055093;28;47209;-55
2021/12/27 04:40:33;;;;;;;;;7.00;7.00;;;;;13.83;69.27;99334.56;2059537;28;47003;-53
2021/12/27 04:41:35;;;;;;;;;6.75;6.00;;;;;13.83;69.20;99338.09;2054668;27;48023;-54
2021/12/27 04:42:37;;;;;;;;;7.00;6.40;;;;;13.83;68.97;99337.22;2047698;28;47271;-53
2021/12/27 04:43:37;;;;;;;;;8.00;6.40;;;;;13.82;68.99;99335.50;2053122;28;47328;-56
2021/12/27 04:44:38;;;;;;;;;5.75;5.25;;;;;13.82;69.20;99340.84;2050895;28;47404;-55
2021/12/27 04:45:41;;;;;;;;;5.25;5.25;;;;;13.82;69.06;99336.38;2053159;28;47348;-55
2021/12/27 04:46:42;;;;;;;;;5.75;4.00;;;;;13.83;69.25;99337.22;2054313;28;48590;-54
2021/12/27 04:47:43;;;;;;;;;5.00;5.00;;;;;13.82;69.17;99339.03;2046913;28;47312;-57
2021/12/27 04:48:43;;;;;;;;;7.00;6.25;;;;;13.82;68.92;99332.84;2054803;28;48334;-57
2021/12/27 04:49:44;;;;;;;;;6.33;6.33;;;;;13.82;68.96;99336.38;2054764;28;46043;-53
2021/12/27 04:50:44;;;;;;;;;7.00;4.75;;;;;13.82;68.92;99333.72;2054579;28;47333;-55
2021/12/27 04:51:45;;;;;;;;;3.67;3.67;;;;;13.83;69.02;99339.91;2052917;28;47433;-55
2021/12/27 04:52:47;;;;;;;;;5.67;5.00;;;;;13.83;69.29;99338.09;2046794;28;47288;-54
2021/12/27 04:53:49;;;;;;;;;5.00;5.00;;;;;13.82;69.13;99339.03;2054780;28;47086;-54
2021/12/27 04:54:50;;;;;;;;;5.75;5.75;;;;;13.83;69.13;99347.91;2054994;28;45408;-56
2021/12/27 04:55:50;;;;;;;;;7.25;6.00;;;;;13.83;69.35;99342.56;2054254;28;48103;-55
2021/12/27 04:56:52;;;;;;;;;7.00;7.00;;;;;13.85;68.95;99346.03;2050508;28;47012;-55